sensor_id;sensor_type;location;lat;lon;timestamp;pressure;altitude;pressure_sealevel;temperature;humidity
79309;BME280;68767;53.078;7.386;2023-04-24T00:01:46;99895.47;;;9.66;89.77
79309;BME280;68767;53.078;7.386;2023-04-24T00:04:13;99901.97;;;9.65;89.72
79309;BME280;68767;53.078;7.386;2023-04-24T00:06:43;99890.78;;;9.63;90.49
79309;BME280;68767;53.078;7.386;2023-04-24T00:09:10;99895.25;;;9.59;91.51
79309;BME280;68767;53.078;7.386;2023-04-24T00:11:37;99893.69;;;9.58;92.03
79309;BME280;68767;53.078;7.386;2023-04-24T00:14:04;99898.16;;;9.54;90.94
79309;BME280;68767;53.078;7.386;2023-04-24T00:16:31;99891.09;;;9.49;91.69
79309;BME280;68767;53.078;7.386;2023-04-24T00:18:58;99898.00;;;9.38;92.37
79309;BME280;68767;53.078;7.386;2023-04-24T00:21:27;99894.41;;;9.34;91.91
79309;BME280;68767;53.078;7.386;2023-04-24T00:23:54;99887.47;;;9.21;92.95
79309;BME280;68767;53.078;7.386;2023-04-24T00:26:21;99887.81;;;9.19;91.99
79309;BME280;68767;53.078;7.386;2023-04-24T00:28:48;99887.22;;;9.14;93.53
79309;BME280;68767;53.078;7.386;2023-04-24T00:31:15;99886.00;;;9.11;94.18
79309;BME280;68767;53.078;7.386;2023-04-24T00:33:42;99891.66;;;9.10;93.66
79309;BME280;68767;53.078;7.386;2023-04-24T00:36:09;99883.41;;;9.03;94.01
79309;BME280;68767;53.078;7.386;2023-04-24T00:38:36;99886.28;;;8.97;94.18
79309;BME280;68767;53.078;7.386;2023-04-24T00:41:03;99885.94;;;8.99;94.64
79309;BME280;68767;53.078;7.386;2023-04-24T00:43:30;99871.84;;;8.90;95.73
79309;BME280;68767;53.078;7.386;2023-04-24T00:45:57;99871.06;;;8.89;95.60
79309;BME280;68767;53.078;7.386;2023-04-24T00:48:24;99868.72;;;8.88;95.18
79309;BME280;68767;53.078;7.386;2023-04-24T00:50:51;99864.00;;;8.85;95.98
79309;BME280;68767;53.078;7.386;2023-04-24T00:53:18;99869.56;;;8.80;95.21
79309;BME280;68767;53.078;7.386;2023-04-24T00:55:46;99863.09;;;8.81;95.99
79309;BME280;68767;53.078;7.386;2023-04-24T00:58:13;99860.41;;;8.81;95.65
79309;BME280;68767;53.078;7.386;2023-04-24T01:00:40;99864.56;;;8.78;96.15
79309;BME280;68767;53.078;7.386;2023-04-24T01:03:07;99860.75;;;8.79;96.41
79309;BME280;68767;53.078;7.386;2023-04-24T01:05:35;99863.28;;;8.76;95.72
79309;BME280;68767;53.078;7.386;2023-04-24T01:08:02;99859.38;;;8.73;96.00
79309;BME280;68767;53.078;7.386;2023-04-24T01:10:31;99860.84;;;8.70;96.47
79309;BME280;68767;53.078;7.386;2023-04-24T01:13:00;99856.91;;;8.68;96.38
79309;BME280;68767;53.078;7.386;2023-04-24T01:15:26;99856.91;;;8.68;97.49
79309;BME280;68767;53.078;7.386;2023-04-24T01:17:53;99855.66;;;8.65;96.46
79309;BME280;68767;53.078;7.386;2023-04-24T01:20:20;99852.53;;;8.63;96.78
79309;BME280;68767;53.078;7.386;2023-04-24T01:22:48;99846.72;;;8.61;96.88
79309;BME280;68767;53.078;7.386;2023-04-24T01:25:15;99844.63;;;8.67;96.57
79309;BME280;68767;53.078;7.386;2023-04-24T01:27:42;99851.53;;;8.68;96.18
79309;BME280;68767;53.078;7.386;2023-04-24T01:30:11;99846.72;;;8.61;96.57
79309;BME280;68767;53.078;7.386;2023-04-24T01:32:38;99850.72;;;8.55;96.49
79309;BME280;68767;53.078;7.386;2023-04-24T01:35:07;99840.00;;;8.55;96.73
79309;BME280;68767;53.078;7.386;2023-04-24T01:37:34;99840.63;;;8.52;96.35
79309;BME280;68767;53.078;7.386;2023-04-24T01:40:05;99841.56;;;8.56;97.16
79309;BME280;68767;53.078;7.386;2023-04-24T01:42:34;99845.69;;;8.54;95.62
79309;BME280;68767;53.078;7.386;2023-04-24T01:45:02;99835.63;;;8.51;95.79
79309;BME280;68767;53.078;7.386;2023-04-24T01:47:30;99823.34;;;8.50;96.04
79309;BME280;68767;53.078;7.386;2023-04-24T01:49:57;99837.50;;;8.50;95.56
79309;BME280;68767;53.078;7.386;2023-04-24T01:52:24;99837.84;;;8.49;95.89
79309;BME280;68767;53.078;7.386;2023-04-24T01:54:52;99822.91;;;8.48;95.33
79309;BME280;68767;53.078;7.386;2023-04-24T01:57:20;99831.84;;;8.52;95.99
79309;BME280;68767;53.078;7.386;2023-04-24T01:59:46;99834.84;;;8.50;96.02
79309;BME280;68767;53.078;7.386;2023-04-24T02:02:14;99839.75;;;8.48;96.06
79309;BME280;68767;53.078;7.386;2023-04-24T02:04:41;99838.97;;;8.48;95.45
79309;BME280;68767;53.078;7.386;2023-04-24T02:07:08;99830.16;;;8.47;94.72
79309;BME280;68767;53.078;7.386;2023-04-24T02:09:35;99834.72;;;8.47;95.72
79309;BME280;68767;53.078;7.386;2023-04-24T02:12:02;99836.47;;;8.42;95.37
79309;BME280;68767;53.078;7.386;2023-04-24T02:14:29;99827.03;;;8.45;95.35
79309;BME280;68767;53.078;7.386;2023-04-24T02:16:56;99833.00;;;8.42;96.06
79309;BME280;68767;53.078;7.386;2023-04-24T02:19:23;99829.56;;;8.41;96.13
79309;BME280;68767;53.078;7.386;2023-04-24T02:21:50;99830.81;;;8.44;95.73
79309;BME280;68767;53.078;7.386;2023-04-24T02:24:16;99828.13;;;8.44;96.04
79309;BME280;68767;53.078;7.386;2023-04-24T02:26:43;99833.28;;;8.49;94.71
79309;BME280;68767;53.078;7.386;2023-04-24T02:29:10;99828.25;;;8.48;94.70
79309;BME280;68767;53.078;7.386;2023-04-24T02:31:37;99832.81;;;8.47;94.79
79309;BME280;68767;53.078;7.386;2023-04-24T02:34:05;99832.38;;;8.45;95.79
79309;BME280;68767;53.078;7.386;2023-04-24T02:36:32;99836.63;;;8.46;95.52
79309;BME280;68767;53.078;7.386;2023-04-24T02:38:59;99847.00;;;8.48;94.97
79309;BME280;68767;53.078;7.386;2023-04-24T02:41:26;99829.69;;;8.45;94.76
79309;BME280;68767;53.078;7.386;2023-04-24T02:43:58;99833.16;;;8.46;94.93
79309;BME280;68767;53.078;7.386;2023-04-24T02:46:25;99830.16;;;8.47;95.06
79309;BME280;68767;53.078;7.386;2023-04-24T02:48:52;99844.75;;;8.50;94.35
79309;BME280;68767;53.078;7.386;2023-04-24T02:51:19;99838.63;;;8.49;94.00
79309;BME280;68767;53.078;7.386;2023-04-24T02:53:46;99827.47;;;8.47;94.65
79309;BME280;68767;53.078;7.386;2023-04-24T02:56:13;99839.41;;;8.50;95.10
79309;BME280;68767;53.078;7.386;2023-04-24T02:58:40;99832.16;;;8.50;94.97
79309;BME280;68767;53.078;7.386;2023-04-24T03:01:07;99837.00;;;8.57;93.71
79309;BME280;68767;53.078;7.386;2023-04-24T03:03:34;99835.88;;;8.58;94.01
79309;BME280;68767;53.078;7.386;2023-04-24T03:06:02;99838.22;;;8.59;93.62
79309;BME280;68767;53.078;7.386;2023-04-24T03:08:28;99842.69;;;8.55;94.09
79309;BME280;68767;53.078;7.386;2023-04-24T03:10:55;99841.56;;;8.56;93.88
79309;BME280;68767;53.078;7.386;2023-04-24T03:13:22;99845.34;;;8.55;94.35
79309;BME280;68767;53.078;7.386;2023-04-24T03:15:49;99841.25;;;8.58;94.01
79309;BME280;68767;53.078;7.386;2023-04-24T03:18:16;99842.47;;;8.60;92.78
79309;BME280;68767;53.078;7.386;2023-04-24T03:20:45;99850.50;;;8.60;92.63
79309;BME280;68767;53.078;7.386;2023-04-24T03:23:13;99851.75;;;8.63;92.15
79309;BME280;68767;53.078;7.386;2023-04-24T03:25:41;99852.09;;;8.61;92.34
79309;BME280;68767;53.078;7.386;2023-04-24T03:28:10;99857.75;;;8.60;93.07
79309;BME280;68767;53.078;7.386;2023-04-24T03:30:41;99865.47;;;8.61;92.65
79309;BME280;68767;53.078;7.386;2023-04-24T03:33:09;99854.28;;;8.59;92.21
79309;BME280;68767;53.078;7.386;2023-04-24T03:35:43;99860.13;;;8.61;92.28
79309;BME280;68767;53.078;7.386;2023-04-24T03:38:11;99856.97;;;8.59;92.79
79309;BME280;68767;53.078;7.386;2023-04-24T03:40:47;99857.44;;;8.61;91.65
79309;BME280;68767;53.078;7.386;2023-04-24T03:43:28;99855.56;;;8.62;90.76
79309;BME280;68767;53.078;7.386;2023-04-24T03:45:57;99853.50;;;8.59;91.20
79309;BME280;68767;53.078;7.386;2023-04-24T03:48:29;99851.81;;;8.54;91.33
79309;BME280;68767;53.078;7.386;2023-04-24T03:50:56;99858.09;;;8.58;91.64
79309;BME280;68767;53.078;7.386;2023-04-24T03:53:23;99864.22;;;8.59;91.38
79309;BME280;68767;53.078;7.386;2023-04-24T03:55:50;99867.22;;;8.57;91.12
79309;BME280;68767;53.078;7.386;2023-04-24T03:58:17;99869.44;;;8.55;91.29
79309;BME280;68767;53.078;7.386;2023-04-24T04:00:44;99870.41;;;8.51;92.12
79309;BME280;68767;53.078;7.386;2023-04-24T04:03:36;99866.19;;;8.50;92.62
79309;BME280;68767;53.078;7.386;2023-04-24T04:06:04;99871.69;;;8.53;90.88
79309;BME280;68767;53.078;7.386;2023-04-24T04:08:31;99878.00;;;8.49;91.95
79309;BME280;68767;53.078;7.386;2023-04-24T04:11:00;99877.81;;;8.54;90.77
79309;BME280;68767;53.078;7.386;2023-04-24T04:13:30;99877.81;;;8.54;91.45
79309;BME280;68767;53.078;7.386;2023-04-24T04:15:58;99888.72;;;8.49;92.72
79309;BME280;68767;53.078;7.386;2023-04-24T04:18:25;99894.38;;;8.47;92.56
79309;BME280;68767;53.078;7.386;2023-04-24T04:20:52;99897.50;;;8.49;92.51
79309;BME280;68767;53.078;7.386;2023-04-24T04:23:19;99902.41;;;8.47;93.33
79309;BME280;68767;53.078;7.386;2023-04-24T04:25:58;99903.19;;;8.48;92.13
79309;BME280;68767;53.078;7.386;2023-04-24T04:28:36;99901.31;;;8.48;92.70
79309;BME280;68767;53.078;7.386;2023-04-24T04:31:05;99904.66;;;8.45;93.18
79309;BME280;68767;53.078;7.386;2023-04-24T04:33:32;99907.00;;;8.47;92.94
79309;BME280;68767;53.078;7.386;2023-04-24T04:35:59;99901.63;;;8.47;93.59
79309;BME280;68767;53.078;7.386;2023-04-24T04:38:29;99914.56;;;8.44;94.04
79309;BME280;68767;53.078;7.386;2023-04-24T04:41:09;99915.81;;;8.47;93.66
79309;BME280;68767;53.078;7.386;2023-04-24T04:43:36;99912.34;;;8.47;94.24
79309;BME280;68767;53.078;7.386;2023-04-24T04:46:05;99927.16;;;8.44;94.06
79309;BME280;68767;53.078;7.386;2023-04-24T04:48:46;99924.94;;;8.46;94.00
79309;BME280;68767;53.078;7.386;2023-04-24T04:51:13;99918.81;;;8.46;94.25
79309;BME280;68767;53.078;7.386;2023-04-24T04:53:40;99923.38;;;8.45;93.63
79309;BME280;68767;53.078;7.386;2023-04-24T04:56:07;99929.97;;;8.48;93.19
79309;BME280;68767;53.078;7.386;2023-04-24T04:58:44;99926.19;;;8.49;93.73
79309;BME280;68767;53.078;7.386;2023-04-24T05:01:14;99916.91;;;8.46;93.32
79309;BME280;68767;53.078;7.386;2023-04-24T05:03:44;99923.97;;;8.51;92.65
79309;BME280;68767;53.078;7.386;2023-04-24T05:06:14;99928.53;;;8.50;93.37
79309;BME280;68767;53.078;7.386;2023-04-24T05:08:44;99921.75;;;8.53;92.89
79309;BME280;68767;53.078;7.386;2023-04-24T05:11:22;99935.44;;;8.51;93.97
79309;BME280;68767;53.078;7.386;2023-04-24T05:13:51;99940.75;;;8.60;93.69
79309;BME280;68767;53.078;7.386;2023-04-24T05:16:24;99935.78;;;8.50;93.90
79309;BME280;68767;53.078;7.386;2023-04-24T05:18:53;99939.91;;;8.47;93.18
79309;BME280;68767;53.078;7.386;2023-04-24T05:21:26;99938.78;;;8.48;93.95
79309;BME280;68767;53.078;7.386;2023-04-24T05:23:54;99934.53;;;8.47;93.18
79309;BME280;68767;53.078;7.386;2023-04-24T05:26:42;99933.75;;;8.47;93.41
79309;BME280;68767;53.078;7.386;2023-04-24T05:29:10;99944.59;;;8.50;93.41
79309;BME280;68767;53.078;7.386;2023-04-24T05:31:36;99941.28;;;8.53;93.10
79309;BME280;68767;53.078;7.386;2023-04-24T05:34:04;99943.31;;;8.56;93.42
79309;BME280;68767;53.078;7.386;2023-04-24T05:36:32;99949.09;;;8.58;93.08
79309;BME280;68767;53.078;7.386;2023-04-24T05:38:59;99948.78;;;8.60;93.39
79309;BME280;68767;53.078;7.386;2023-04-24T05:41:26;99948.66;;;8.56;93.48
79309;BME280;68767;53.078;7.386;2023-04-24T05:43:53;99946.44;;;8.58;93.17
79309;BME280;68767;53.078;7.386;2023-04-24T05:46:20;99959.81;;;8.58;93.25
79309;BME280;68767;53.078;7.386;2023-04-24T05:48:47;99946.56;;;8.62;92.44
79309;BME280;68767;53.078;7.386;2023-04-24T05:51:14;99951.59;;;8.63;93.32
79309;BME280;68767;53.078;7.386;2023-04-24T05:53:41;99948.72;;;8.68;92.95
79309;BME280;68767;53.078;7.386;2023-04-24T05:56:08;99951.66;;;8.76;92.53
79309;BME280;68767;53.078;7.386;2023-04-24T05:58:35;99957.16;;;8.79;91.45
79309;BME280;68767;53.078;7.386;2023-04-24T06:01:04;99955.72;;;8.82;91.75
79309;BME280;68767;53.078;7.386;2023-04-24T06:03:32;99962.19;;;8.81;91.38
79309;BME280;68767;53.078;7.386;2023-04-24T06:06:02;99949.69;;;8.85;91.33
79309;BME280;68767;53.078;7.386;2023-04-24T06:08:29;99964.03;;;8.89;91.15
79309;BME280;68767;53.078;7.386;2023-04-24T06:10:56;99968.72;;;8.92;91.07
79309;BME280;68767;53.078;7.386;2023-04-24T06:13:23;99968.38;;;8.93;90.45
79309;BME280;68767;53.078;7.386;2023-04-24T06:16:10;99984.88;;;9.04;90.17
79309;BME280;68767;53.078;7.386;2023-04-24T06:18:39;99962.00;;;9.07;91.46
79309;BME280;68767;53.078;7.386;2023-04-24T06:21:06;99979.19;;;9.06;89.88
79309;BME280;68767;53.078;7.386;2023-04-24T06:23:33;99969.69;;;9.08;90.32
79309;BME280;68767;53.078;7.386;2023-04-24T06:26:00;99975.66;;;9.14;89.53
79309;BME280;68767;53.078;7.386;2023-04-24T06:28:27;99974.19;;;9.16;90.41
79309;BME280;68767;53.078;7.386;2023-04-24T06:30:54;99981.28;;;9.21;89.98
79309;BME280;68767;53.078;7.386;2023-04-24T06:33:21;99979.28;;;9.30;89.39
79309;BME280;68767;53.078;7.386;2023-04-24T06:35:49;99986.34;;;9.35;88.33
79309;BME280;68767;53.078;7.386;2023-04-24T06:38:16;99982.88;;;9.34;86.86
79309;BME280;68767;53.078;7.386;2023-04-24T06:40:43;99987.25;;;9.39;88.45
79309;BME280;68767;53.078;7.386;2023-04-24T06:43:10;99983.47;;;9.40;86.62
79309;BME280;68767;53.078;7.386;2023-04-24T06:45:38;99984.69;;;9.42;87.44
79309;BME280;68767;53.078;7.386;2023-04-24T06:48:06;99987.44;;;9.54;87.45
79309;BME280;68767;53.078;7.386;2023-04-24T06:50:33;99983.28;;;9.57;86.85
79309;BME280;68767;53.078;7.386;2023-04-24T06:53:00;99982.84;;;9.55;86.38
79309;BME280;68767;53.078;7.386;2023-04-24T06:55:27;99978.38;;;9.59;85.50
79309;BME280;68767;53.078;7.386;2023-04-24T06:57:54;99978.50;;;9.63;86.36
79309;BME280;68767;53.078;7.386;2023-04-24T07:00:21;99985.09;;;9.65;86.40
79309;BME280;68767;53.078;7.386;2023-04-24T07:02:48;99984.53;;;9.60;87.13
79309;BME280;68767;53.078;7.386;2023-04-24T07:05:15;100006.84;;;9.51;86.12
79309;BME280;68767;53.078;7.386;2023-04-24T07:07:42;99997.13;;;9.47;85.64
79309;BME280;68767;53.078;7.386;2023-04-24T07:10:09;99984.94;;;9.49;86.31
79309;BME280;68767;53.078;7.386;2023-04-24T07:12:36;100002.59;;;9.50;86.18
79309;BME280;68767;53.078;7.386;2023-04-24T07:15:05;99996.25;;;9.55;87.01
79309;BME280;68767;53.078;7.386;2023-04-24T07:17:32;99990.44;;;9.53;86.61
79309;BME280;68767;53.078;7.386;2023-04-24T07:19:59;100000.31;;;9.40;87.46
79309;BME280;68767;53.078;7.386;2023-04-24T07:22:26;99998.72;;;9.27;89.78
79309;BME280;68767;53.078;7.386;2023-04-24T07:24:53;100000.38;;;9.19;90.31
79309;BME280;68767;53.078;7.386;2023-04-24T07:27:20;100006.44;;;9.08;91.91
79309;BME280;68767;53.078;7.386;2023-04-24T07:29:47;100008.13;;;8.91;91.51
79309;BME280;68767;53.078;7.386;2023-04-24T07:32:13;100009.00;;;8.75;93.28
79309;BME280;68767;53.078;7.386;2023-04-24T07:34:41;100013.06;;;8.81;94.14
79309;BME280;68767;53.078;7.386;2023-04-24T07:37:08;100006.16;;;8.80;93.79
79309;BME280;68767;53.078;7.386;2023-04-24T07:39:35;100012.28;;;8.80;93.51
79309;BME280;68767;53.078;7.386;2023-04-24T07:42:01;100012.81;;;8.73;92.90
79309;BME280;68767;53.078;7.386;2023-04-24T07:44:28;100008.16;;;8.62;92.14
79309;BME280;68767;53.078;7.386;2023-04-24T07:46:55;100017.09;;;8.66;92.90
79309;BME280;68767;53.078;7.386;2023-04-24T07:49:23;100013.25;;;8.76;94.76
79309;BME280;68767;53.078;7.386;2023-04-24T07:51:50;100013.06;;;8.81;93.58
79309;BME280;68767;53.078;7.386;2023-04-24T07:54:17;100019.09;;;8.78;92.80
79309;BME280;68767;53.078;7.386;2023-04-24T07:56:44;100014.19;;;8.80;93.88
79309;BME280;68767;53.078;7.386;2023-04-24T07:59:11;100016.22;;;8.83;94.23
79309;BME280;68767;53.078;7.386;2023-04-24T08:01:37;100019.66;;;8.83;92.21
79309;BME280;68767;53.078;7.386;2023-04-24T08:04:05;100024.91;;;8.80;93.26
79309;BME280;68767;53.078;7.386;2023-04-24T08:06:33;100020.66;;;8.79;92.26
79309;BME280;68767;53.078;7.386;2023-04-24T08:09:00;100028.22;;;8.77;93.41
79309;BME280;68767;53.078;7.386;2023-04-24T08:11:27;100025.34;;;8.82;93.60
79309;BME280;68767;53.078;7.386;2023-04-24T08:13:54;100023.91;;;8.84;94.66
79309;BME280;68767;53.078;7.386;2023-04-24T08:16:22;100031.31;;;8.87;94.33
79309;BME280;68767;53.078;7.386;2023-04-24T08:18:51;100036.00;;;8.90;94.71
79309;BME280;68767;53.078;7.386;2023-04-24T08:21:18;100039.84;;;8.81;94.04
79309;BME280;68767;53.078;7.386;2023-04-24T08:23:45;100029.28;;;8.84;95.90
79309;BME280;68767;53.078;7.386;2023-04-24T08:26:13;100031.59;;;8.94;96.12
79309;BME280;68767;53.078;7.386;2023-04-24T08:28:40;100042.38;;;9.07;95.93
79309;BME280;68767;53.078;7.386;2023-04-24T08:31:07;100042.38;;;9.07;95.35
79309;BME280;68767;53.078;7.386;2023-04-24T08:33:34;100046.16;;;9.06;94.97
79309;BME280;68767;53.078;7.386;2023-04-24T08:36:05;100046.22;;;8.97;95.51
79309;BME280;68767;53.078;7.386;2023-04-24T08:38:33;100047.66;;;8.94;96.00
79309;BME280;68767;53.078;7.386;2023-04-24T08:41:01;100050.34;;;8.94;95.42
79309;BME280;68767;53.078;7.386;2023-04-24T08:43:28;100051.47;;;8.85;95.91
79309;BME280;68767;53.078;7.386;2023-04-24T08:45:56;100047.44;;;8.79;96.28
79309;BME280;68767;53.078;7.386;2023-04-24T08:48:23;100049.00;;;8.80;96.57
79309;BME280;68767;53.078;7.386;2023-04-24T08:50:58;100056.84;;;8.85;96.57
79309;BME280;68767;53.078;7.386;2023-04-24T08:53:26;100053.97;;;8.90;96.79
79309;BME280;68767;53.078;7.386;2023-04-24T08:55:55;100059.00;;;8.91;96.27
79309;BME280;68767;53.078;7.386;2023-04-24T08:58:25;100061.31;;;9.01;96.85
79309;BME280;68767;53.078;7.386;2023-04-24T09:00:57;100058.06;;;8.96;96.18
79309;BME280;68767;53.078;7.386;2023-04-24T09:03:24;100067.84;;;8.92;96.71
79309;BME280;68767;53.078;7.386;2023-04-24T09:05:54;100061.06;;;8.94;97.01
79309;BME280;68767;53.078;7.386;2023-04-24T09:08:24;100070.84;;;8.90;96.89
79309;BME280;68767;53.078;7.386;2023-04-24T09:10:51;100070.66;;;8.95;97.29
79309;BME280;68767;53.078;7.386;2023-04-24T09:13:19;100072.41;;;8.91;97.39
79309;BME280;68767;53.078;7.386;2023-04-24T09:15:47;100080.38;;;9.00;97.42
79309;BME280;68767;53.078;7.386;2023-04-24T09:18:13;100090.31;;;8.99;97.69
79309;BME280;68767;53.078;7.386;2023-04-24T09:21:00;100089.63;;;9.11;97.58
79309;BME280;68767;53.078;7.386;2023-04-24T09:23:29;100087.88;;;9.15;97.30
79309;BME280;68767;53.078;7.386;2023-04-24T09:25:57;100088.91;;;9.23;97.52
79309;BME280;68767;53.078;7.386;2023-04-24T09:28:32;100095.59;;;9.38;97.35
79309;BME280;68767;53.078;7.386;2023-04-24T09:31:06;100100.97;;;9.38;97.02
79309;BME280;68767;53.078;7.386;2023-04-24T09:33:34;100102.34;;;9.44;96.76
79309;BME280;68767;53.078;7.386;2023-04-24T09:36:02;100104.25;;;9.43;97.28
79309;BME280;68767;53.078;7.386;2023-04-24T09:41:00;100118.44;;;9.44;96.81
79309;BME280;68767;53.078;7.386;2023-04-24T09:43:29;100115.59;;;9.40;96.43
79309;BME280;68767;53.078;7.386;2023-04-24T09:45:58;100120.63;;;9.42;95.75
79309;BME280;68767;53.078;7.386;2023-04-24T09:48:36;100126.59;;;9.47;95.87
79309;BME280;68767;53.078;7.386;2023-04-24T09:51:05;100128.22;;;9.40;96.24
79309;BME280;68767;53.078;7.386;2023-04-24T09:53:38;100139.78;;;9.32;96.52
79309;BME280;68767;53.078;7.386;2023-04-24T09:56:11;100138.66;;;9.33;96.78
79309;BME280;68767;53.078;7.386;2023-04-24T09:58:39;100143.34;;;9.44;96.02
79309;BME280;68767;53.078;7.386;2023-04-24T10:01:06;100145.69;;;9.46;95.61
79309;BME280;68767;53.078;7.386;2023-04-24T10:03:34;100149.66;;;9.40;95.41
79309;BME280;68767;53.078;7.386;2023-04-24T10:06:02;100153.06;;;9.28;95.27
79309;BME280;68767;53.078;7.386;2023-04-24T10:08:36;100167.59;;;9.18;95.23
79309;BME280;68767;53.078;7.386;2023-04-24T10:11:04;100174.69;;;9.23;96.16
79309;BME280;68767;53.078;7.386;2023-04-24T10:13:32;100173.78;;;9.19;96.25
79309;BME280;68767;53.078;7.386;2023-04-24T10:16:00;100184.06;;;9.08;96.19
79309;BME280;68767;53.078;7.386;2023-04-24T10:18:28;100185.44;;;9.14;95.68
79309;BME280;68767;53.078;7.386;2023-04-24T10:20:56;100188.28;;;9.09;95.03
79309;BME280;68767;53.078;7.386;2023-04-24T10:23:25;100206.47;;;9.04;95.43
79309;BME280;68767;53.078;7.386;2023-04-24T10:25:52;100202.22;;;9.03;95.25
79309;BME280;68767;53.078;7.386;2023-04-24T10:28:20;100208.69;;;8.93;94.88
79309;BME280;68767;53.078;7.386;2023-04-24T10:30:48;100214.53;;;8.95;95.49
79309;BME280;68767;53.078;7.386;2023-04-24T10:33:16;100224.59;;;8.98;95.78
79309;BME280;68767;53.078;7.386;2023-04-24T10:35:47;100222.56;;;8.95;94.76
79309;BME280;68767;53.078;7.386;2023-04-24T10:38:22;100231.53;;;8.99;94.70
79309;BME280;68767;53.078;7.386;2023-04-24T10:40:51;100235.44;;;9.01;95.74
79309;BME280;68767;53.078;7.386;2023-04-24T10:43:18;100241.78;;;8.97;94.63
79309;BME280;68767;53.078;7.386;2023-04-24T10:46:05;100251.25;;;8.94;95.11
79309;BME280;68767;53.078;7.386;2023-04-24T10:48:33;100257.25;;;8.83;95.17
79309;BME280;68767;53.078;7.386;2023-04-24T10:51:01;100264.41;;;8.70;94.69
79309;BME280;68767;53.078;7.386;2023-04-24T10:53:29;100272.44;;;8.61;94.77
79309;BME280;68767;53.078;7.386;2023-04-24T10:56:05;100273.69;;;8.55;94.43
79309;BME280;68767;53.078;7.386;2023-04-24T10:58:49;100288.81;;;8.60;95.27
79309;BME280;68767;53.078;7.386;2023-04-24T11:01:27;100298.72;;;8.51;95.34
79309;BME280;68767;53.078;7.386;2023-04-24T11:04:00;100291.81;;;8.50;94.93
79309;BME280;68767;53.078;7.386;2023-04-24T11:06:30;100302.69;;;8.53;95.71
79309;BME280;68767;53.078;7.386;2023-04-24T11:09:06;100308.50;;;8.55;95.81
79309;BME280;68767;53.078;7.386;2023-04-24T11:11:35;100313.88;;;8.55;95.83
79309;BME280;68767;53.078;7.386;2023-04-24T11:14:08;100320.94;;;8.42;95.78
79309;BME280;68767;53.078;7.386;2023-04-24T11:24:28;100348.28;;;8.22;96.20
79309;BME280;68767;53.078;7.386;2023-04-24T11:29:39;100342.94;;;8.31;94.39
79309;BME280;68767;53.078;7.386;2023-04-24T11:37:33;100356.84;;;8.50;95.92
79309;BME280;68767;53.078;7.386;2023-04-24T11:40:02;100358.59;;;8.63;94.81
79309;BME280;68767;53.078;7.386;2023-04-24T11:42:41;100357.47;;;8.56;92.72
79309;BME280;68767;53.078;7.386;2023-04-24T11:45:13;100366.16;;;8.61;94.55
79309;BME280;68767;53.078;7.386;2023-04-24T11:47:41;100368.06;;;8.61;93.83
79309;BME280;68767;53.078;7.386;2023-04-24T11:50:13;100383.63;;;8.67;94.09
79309;BME280;68767;53.078;7.386;2023-04-24T11:52:42;100377.66;;;8.70;92.74
79309;BME280;68767;53.078;7.386;2023-04-24T11:57:43;100398.44;;;8.65;93.05
79309;BME280;68767;53.078;7.386;2023-04-24T12:00:19;100406.00;;;8.71;92.19
79309;BME280;68767;53.078;7.386;2023-04-24T12:02:47;100417.19;;;8.82;93.25
79309;BME280;68767;53.078;7.386;2023-04-24T12:05:28;100414.38;;;8.79;90.13
79309;BME280;68767;53.078;7.386;2023-04-24T12:07:57;100416.88;;;8.75;90.39
79309;BME280;68767;53.078;7.386;2023-04-24T12:10:26;100432.00;;;8.71;90.78
79309;BME280;68767;53.078;7.386;2023-04-24T12:12:55;100420.66;;;8.65;90.95
79309;BME280;68767;53.078;7.386;2023-04-24T12:15:23;100423.19;;;8.62;91.06
79309;BME280;68767;53.078;7.386;2023-04-24T12:17:51;100423.16;;;8.44;91.00
79309;BME280;68767;53.078;7.386;2023-04-24T12:20:32;100428.63;;;8.39;92.12
79309;BME280;68767;53.078;7.386;2023-04-24T12:23:00;100429.84;;;8.33;92.29
79309;BME280;68767;53.078;7.386;2023-04-24T12:25:29;100437.09;;;8.33;92.43
79309;BME280;68767;53.078;7.386;2023-04-24T12:30:34;100440.69;;;8.20;91.39
79309;BME280;68767;53.078;7.386;2023-04-24T12:33:05;100451.69;;;8.18;92.64
79309;BME280;68767;53.078;7.386;2023-04-24T12:35:33;100444.66;;;8.31;92.21
79309;BME280;68767;53.078;7.386;2023-04-24T12:38:14;100451.47;;;8.37;90.46
79309;BME280;68767;53.078;7.386;2023-04-24T12:40:42;100451.81;;;8.44;91.84
79309;BME280;68767;53.078;7.386;2023-04-24T12:43:14;100459.03;;;8.43;93.07
79309;BME280;68767;53.078;7.386;2023-04-24T12:45:41;100456.06;;;8.45;91.48
79309;BME280;68767;53.078;7.386;2023-04-24T12:48:08;100455.28;;;8.44;91.86
79309;BME280;68767;53.078;7.386;2023-04-24T12:50:36;100462.19;;;8.37;91.38
79309;BME280;68767;53.078;7.386;2023-04-24T12:53:03;100468.75;;;8.31;90.82
79309;BME280;68767;53.078;7.386;2023-04-24T12:55:29;100466.38;;;8.29;91.49
79309;BME280;68767;53.078;7.386;2023-04-24T12:57:57;100481.78;;;8.24;91.88
79309;BME280;68767;53.078;7.386;2023-04-24T13:00:24;100473.13;;;8.27;91.10
79309;BME280;68767;53.078;7.386;2023-04-24T13:02:51;100475.00;;;8.26;92.49
79309;BME280;68767;53.078;7.386;2023-04-24T13:05:19;100480.53;;;8.21;89.98
79309;BME280;68767;53.078;7.386;2023-04-24T13:07:45;100479.09;;;8.24;91.52
79309;BME280;68767;53.078;7.386;2023-04-24T13:10:13;100488.97;;;8.14;89.87
79309;BME280;68767;53.078;7.386;2023-04-24T13:12:40;100494.19;;;8.11;90.73
79309;BME280;68767;53.078;7.386;2023-04-24T13:15:07;100506.31;;;8.17;88.70
79309;BME280;68767;53.078;7.386;2023-04-24T13:17:34;100496.53;;;8.12;90.23
79309;BME280;68767;53.078;7.386;2023-04-24T13:20:02;100511.44;;;8.05;89.80
79309;BME280;68767;53.078;7.386;2023-04-24T13:22:29;100514.91;;;8.05;89.40
79309;BME280;68767;53.078;7.386;2023-04-24T13:24:56;100514.44;;;8.03;88.80
79309;BME280;68767;53.078;7.386;2023-04-24T13:27:23;100518.06;;;8.07;89.88
79309;BME280;68767;53.078;7.386;2023-04-24T13:29:50;100520.25;;;8.05;90.37
79309;BME280;68767;53.078;7.386;2023-04-24T13:32:17;100521.22;;;8.09;90.22
79309;BME280;68767;53.078;7.386;2023-04-24T13:34:46;100531.13;;;8.09;88.71
79309;BME280;68767;53.078;7.386;2023-04-24T13:37:12;100527.97;;;8.07;89.02